Avoca, Wisconsin
Current Conditions -  °F | °C
As of 9:56 PM on Friday 24 Oct 2014 (Local Time) from KLNR Reporting Station
Haze Haze  
Wind Chill: 61°   Ceiling: 3300
Heat Index: 61°   Visibility: 5mi
Dew Point: 55°   Wind: 5mph
Humidity: 81%   Direction: 280°W
Pressure: 29.92"   Gusts: NA
Location:  43.18°N, 90.32°W
Report Text: KLNR 250256Z AUTO 28004KT 5SM HZ OVC033 16/13 A2992 RMK AO2 SLP126 T01610128 55002
Loading
Personal Weather Stations






























Interactive Weather Map
Tropical Storm Tracking
New forecast layout! Learn more

10-Day Weather Forecast

Advertisements
Track Severe Weather on mobile